Emory, Virginia
Current Conditions -  °F | °C
As of 9:35 PM on Saturday 25 Oct 2014 (Local Time) from KVJI Reporting Station
Clear Clear  
Wind Chill: 55°   Ceiling: Unl
Heat Index: 55°   Visibility: 10mi
Dew Point: 48°   Wind: 3mph
Humidity: 78%   Direction: 240°WSW
Pressure: 30.01"   Gusts: NA
Location:  36.77°N, 81.84°W
Report Text: KVJI 260135Z AUTO 24003KT 10SM CLR 13/09 A3001 RMK AO2 T01290091
Loading
Personal Weather Stations






























Interactive Weather Map
Tropical Storm Tracking
New forecast layout! Learn more

10-Day Weather Forecast

Advertisements
Track Severe Weather on mobile